createdAt,value
2023-05-23T00:00:52.081Z,6.60
2023-05-23T00:05:56.520Z,6.60
2023-05-23T00:11:00.835Z,7.00
2023-05-23T00:16:04.617Z,7.00
2023-05-23T00:21:07.783Z,7.60
2023-05-23T00:26:11.964Z,7.00
2023-05-23T00:31:19.226Z,6.60
2023-05-23T00:36:24.252Z,7.00
2023-05-23T00:41:30.525Z,7.00
2023-05-23T00:46:33.908Z,7.00
2023-05-23T00:51:37.198Z,6.80
2023-05-23T00:56:41.372Z,7.00
2023-05-23T01:01:47.753Z,6.40
2023-05-23T01:06:50.565Z,7.00
2023-05-23T01:12:00.352Z,7.20
2023-05-23T01:17:06.251Z,7.00
2023-05-23T01:22:13.144Z,7.60
2023-05-23T01:27:21.949Z,7.00
2023-05-23T01:32:26.559Z,6.80
2023-05-23T01:37:29.771Z,6.40
2023-05-23T01:42:32.708Z,6.60
2023-05-23T01:47:37.039Z,7.00
2023-05-23T01:52:40.476Z,6.40
2023-05-23T01:57:43.285Z,8.00
2023-05-23T02:02:47.701Z,8.60
2023-05-23T02:07:52.839Z,6.80
2023-05-23T02:12:55.786Z,6.20
2023-05-23T02:18:00.020Z,7.00
2023-05-23T02:23:02.941Z,7.60
2023-05-23T02:28:05.849Z,6.80
2023-05-23T02:33:10.874Z,7.60
2023-05-23T02:38:13.861Z,6.00
2023-05-23T02:43:18.002Z,6.60
2023-05-23T02:48:22.371Z,8.00
2023-05-23T02:53:27.124Z,8.00
2023-05-23T02:58:31.854Z,9.00
2023-05-23T03:03:36.511Z,8.00
2023-05-23T03:08:39.524Z,7.60
2023-05-23T03:13:42.412Z,7.80
2023-05-23T03:18:46.688Z,8.60
2023-05-23T03:23:50.245Z,8.60
2023-05-23T03:28:53.174Z,10.00
2023-05-23T03:33:57.468Z,8.00
2023-05-23T03:39:00.476Z,8.80
2023-05-23T03:44:03.997Z,9.80
2023-05-23T03:49:08.640Z,9.20
2023-05-23T03:54:12.288Z,9.60
2023-05-23T03:59:15.210Z,9.60
2023-05-23T04:04:21.070Z,10.00
2023-05-23T04:09:25.450Z,11.00
2023-05-23T04:14:29.982Z,9.20
2023-05-23T04:19:36.175Z,9.40
2023-05-23T04:24:39.353Z,10.00
2023-05-23T04:29:42.289Z,10.20
2023-05-23T04:34:46.967Z,10.00
2023-05-23T04:39:50.227Z,10.00
2023-05-23T04:45:05.121Z,9.40
2023-05-23T04:50:31.720Z,8.80
2023-05-23T04:55:35.063Z,9.60
2023-05-23T05:00:39.238Z,11.00
2023-05-23T05:05:43.804Z,10.00
2023-05-23T05:10:46.722Z,10.40
2023-05-23T05:15:52.784Z,9.20
2023-05-23T05:20:57.545Z,10.00
2023-05-23T05:26:00.619Z,10.00
2023-05-23T05:31:05.334Z,9.60
2023-05-23T05:36:12.528Z,10.20
2023-05-23T05:41:16.605Z,9.80
2023-05-23T05:46:23.900Z,11.00
2023-05-23T05:51:29.797Z,10.00
2023-05-23T05:56:32.962Z,10.00
2023-05-23T06:01:35.841Z,9.60
2023-05-23T06:06:40.108Z,10.00
2023-05-23T06:11:43.291Z,10.00
2023-05-23T06:16:46.466Z,9.80
2023-05-23T06:21:51.478Z,10.20
2023-05-23T06:26:55.512Z,11.00
2023-05-23T06:31:58.573Z,10.00
2023-05-23T06:37:03.058Z,11.00
2023-05-23T06:42:06.466Z,10.60
2023-05-23T06:47:25.627Z,12.60
2023-05-23T06:52:29.821Z,12.00
2023-05-23T06:57:33.269Z,12.00
2023-05-23T07:02:36.241Z,14.00
2023-05-23T07:07:43.464Z,13.60
2023-05-23T07:12:46.615Z,14.00
2023-05-23T07:17:51.165Z,15.60
2023-05-23T07:22:55.990Z,15.80
2023-05-23T07:27:59.768Z,15.20
2023-05-23T07:33:03.132Z,16.00
2023-05-23T07:38:08.180Z,16.60
2023-05-23T07:43:11.770Z,15.40
2023-05-23T07:48:14.696Z,11.80
2023-05-23T07:53:20.098Z,12.60
2023-05-23T07:58:23.219Z,13.20
2023-05-23T08:03:26.417Z,11.80
2023-05-23T08:08:41.269Z,9.60
2023-05-23T08:13:44.981Z,12.00
2023-05-23T08:19:11.280Z,11.00
2023-05-23T08:24:15.942Z,11.60
2023-05-23T08:29:20.358Z,10.60
2023-05-23T08:34:23.593Z,13.00
2023-05-23T08:39:27.930Z,15.40
2023-05-23T08:44:45.022Z,15.00
2023-05-23T08:49:48.115Z,13.80
2023-05-23T08:54:53.231Z,16.60
2023-05-23T08:59:56.443Z,14.60
2023-05-23T09:05:00.311Z,14.60
2023-05-23T09:10:06.184Z,17.40
2023-05-23T09:15:10.666Z,15.40
2023-05-23T09:20:14.668Z,14.20
2023-05-23T09:25:24.923Z,17.60
2023-05-23T09:30:28.009Z,15.00
2023-05-23T09:35:32.355Z,16.40
2023-05-23T09:40:37.171Z,13.80
2023-05-23T09:45:40.491Z,14.80
2023-05-23T09:50:43.457Z,14.80
2023-05-23T09:55:47.850Z,14.20
2023-05-23T10:00:51.356Z,12.40
2023-05-23T10:05:57.284Z,12.00
2023-05-23T10:11:32.939Z,14.00
2023-05-23T10:16:40.791Z,14.40
2023-05-23T10:21:46.861Z,12.40
2023-05-23T10:26:49.851Z,11.00
2023-05-23T10:31:54.058Z,11.20
2023-05-23T10:37:00.951Z,11.00
2023-05-23T10:42:07.214Z,10.40
2023-05-23T10:47:13.016Z,11.00
2023-05-23T10:52:18.201Z,11.00
2023-05-23T10:57:21.700Z,8.20
2023-05-23T11:02:29.776Z,9.00
2023-05-23T11:07:33.250Z,11.00
2023-05-23T11:12:40.046Z,11.20
2023-05-23T11:17:51.354Z,11.20
2023-05-23T11:22:54.737Z,10.00
2023-05-23T11:27:57.560Z,11.60
2023-05-23T11:33:01.916Z,8.40
2023-05-23T11:38:05.229Z,7.00
2023-05-23T11:43:09.323Z,7.00
2023-05-23T11:48:13.940Z,6.20
2023-05-23T11:53:18.768Z,4.20
2023-05-23T11:58:22.691Z,1.00
2023-05-23T12:03:27.167Z,1.00
2023-05-23T12:08:30.358Z,1.00
2023-05-23T12:13:33.376Z,1.00
2023-05-23T12:18:41.137Z,1.00
2023-05-23T12:23:44.366Z,0.00
2023-05-23T12:28:47.186Z,0.80
2023-05-23T12:33:54.120Z,0.40
2023-05-23T12:38:57.078Z,0.60
2023-05-23T12:44:00.529Z,0.60
2023-05-23T12:49:04.892Z,1.00
2023-05-23T12:54:09.275Z,1.00
2023-05-23T12:59:12.139Z,0.80
2023-05-23T13:04:16.947Z,1.00
2023-05-23T13:09:21.215Z,2.00
2023-05-23T13:14:24.381Z,0.60
2023-05-23T13:19:32.977Z,1.00
2023-05-23T13:24:47.049Z,1.00
2023-05-23T13:29:51.803Z,1.20
2023-05-23T13:34:56.610Z,1.00
2023-05-23T13:39:59.539Z,1.00
2023-05-23T13:45:05.406Z,1.20
2023-05-23T13:50:11.228Z,0.00
2023-05-23T13:55:14.255Z,0.20
2023-05-23T14:00:17.552Z,1.20
2023-05-23T14:05:22.570Z,1.00
2023-05-23T14:10:29.987Z,1.00
2023-05-23T14:15:34.617Z,1.00
2023-05-23T14:20:39.205Z,1.60
2023-05-23T14:25:42.703Z,1.20
2023-05-23T14:30:50.873Z,1.00
2023-05-23T14:35:55.696Z,1.60
2023-05-23T14:40:59.902Z,1.00
2023-05-23T14:46:03.219Z,1.00
2023-05-23T14:51:07.623Z,1.00
2023-05-23T14:56:10.746Z,1.00
2023-05-23T15:01:13.891Z,1.00
2023-05-23T15:06:18.489Z,1.00
2023-05-23T15:11:21.714Z,1.00
2023-05-23T15:16:25.417Z,2.00
2023-05-23T15:21:32.459Z,1.00
2023-05-23T15:26:36.554Z,1.20
2023-05-23T15:31:48.021Z,1.80
2023-05-23T15:36:56.310Z,2.00
2023-05-23T15:42:13.525Z,1.00
2023-05-23T15:47:22.975Z,2.00
2023-05-23T15:52:27.206Z,1.00
2023-05-23T15:57:30.394Z,1.80
2023-05-23T16:02:33.288Z,1.00
2023-05-23T16:07:37.501Z,0.60
2023-05-23T16:12:40.508Z,1.00
2023-05-23T16:17:43.474Z,1.60
2023-05-23T16:22:48.154Z,1.00
2023-05-23T16:27:51.092Z,1.00
2023-05-23T16:32:53.925Z,1.00
2023-05-23T16:37:58.113Z,2.00
2023-05-23T16:43:02.739Z,1.00
2023-05-23T16:48:06.506Z,1.00
2023-05-23T16:53:11.953Z,2.00
2023-05-23T16:58:14.907Z,2.60
2023-05-23T17:03:18.178Z,3.80
2023-05-23T17:08:22.623Z,2.00
2023-05-23T17:13:26.110Z,1.80
2023-05-23T17:18:28.947Z,2.80
2023-05-23T17:23:33.459Z,2.00
2023-05-23T17:28:36.257Z,2.00
2023-05-23T17:33:39.085Z,3.80
2023-05-23T17:38:43.649Z,2.00
2023-05-23T17:43:46.646Z,2.00
2023-05-23T17:48:49.755Z,2.80
2023-05-23T17:53:54.890Z,2.20
2023-05-23T17:58:57.862Z,2.00
2023-05-23T18:04:01.346Z,2.00
2023-05-23T18:09:06.145Z,2.00
2023-05-23T18:14:09.077Z,2.00
2023-05-23T18:19:12.460Z,2.00
2023-05-23T18:24:17.044Z,2.00
2023-05-23T18:29:20.622Z,2.60
2023-05-23T18:34:23.414Z,1.60
2023-05-23T18:39:27.681Z,2.00
2023-05-23T18:44:31.469Z,1.80
2023-05-23T18:49:34.668Z,2.60
2023-05-23T18:54:39.087Z,1.60
2023-05-23T18:59:42.365Z,1.60
2023-05-23T19:04:45.281Z,1.80
2023-05-23T19:09:49.863Z,2.00
2023-05-23T19:14:52.816Z,2.00
2023-05-23T19:19:56.295Z,2.00
2023-05-23T19:25:00.711Z,2.00
2023-05-23T19:30:03.759Z,1.60
2023-05-23T19:35:08.192Z,2.00
2023-05-23T19:40:13.432Z,1.60
2023-05-23T19:45:17.023Z,1.60
2023-05-23T19:50:21.800Z,1.40
2023-05-23T19:55:26.466Z,2.00
2023-05-23T20:00:32.038Z,1.20
2023-05-23T20:05:37.057Z,1.00
2023-05-23T20:10:43.230Z,1.00
2023-05-23T20:15:46.459Z,2.00
2023-05-23T20:20:49.315Z,1.40
2023-05-23T20:25:53.598Z,1.00
2023-05-23T20:30:56.730Z,1.60
2023-05-23T20:35:59.621Z,1.00
2023-05-23T20:41:06.414Z,1.80
2023-05-23T20:46:10.114Z,1.00
2023-05-23T20:51:13.527Z,1.20
2023-05-23T20:56:18.140Z,1.00
2023-05-23T21:01:23.056Z,1.80
2023-05-23T21:06:25.990Z,1.00
2023-05-23T21:11:30.185Z,1.00
2023-05-23T21:16:33.450Z,1.60
2023-05-23T21:21:37.482Z,1.40
2023-05-23T21:26:41.645Z,1.00
2023-05-23T21:31:44.622Z,1.80
2023-05-23T21:36:47.479Z,1.00
2023-05-23T21:41:52.006Z,1.20
2023-05-23T21:46:54.950Z,1.00
2023-05-23T21:51:57.784Z,1.00
2023-05-23T21:57:01.985Z,1.00
2023-05-23T22:02:05.539Z,1.00
2023-05-23T22:07:08.478Z,1.00
2023-05-23T22:12:13.628Z,1.00
2023-05-23T22:17:17.791Z,0.60
2023-05-23T22:22:20.679Z,1.00
2023-05-23T22:27:24.854Z,1.60
2023-05-23T22:32:27.790Z,1.00
2023-05-23T22:37:30.620Z,1.00
2023-05-23T22:42:34.933Z,1.00
2023-05-23T22:47:37.719Z,1.00
2023-05-23T22:52:40.533Z,0.40
2023-05-23T22:57:44.700Z,1.60
2023-05-23T23:02:47.628Z,2.00
2023-05-23T23:07:50.476Z,1.00
2023-05-23T23:12:54.884Z,1.40
2023-05-23T23:17:57.704Z,1.00
2023-05-23T23:23:00.598Z,1.00
2023-05-23T23:28:05.051Z,1.00
2023-05-23T23:33:07.942Z,1.00
2023-05-23T23:38:10.863Z,1.00
2023-05-23T23:43:15.019Z,1.00
2023-05-23T23:48:17.875Z,0.40
2023-05-23T23:53:21.826Z,1.00
2023-05-23T23:58:26.105Z,1.20
